Weather at Vertientes Airport

Public forecast

Using degrees Celsius for public forecast. Weather courtesy of forecast.io.

Closest aviation weather report (METAR) to Vertientes Airport

Closest report is Ignacio Agramonte International Airport, 18.5 nm (34.3 km) NE.

2024/06/18 18:50 (retrieved 28 minutes ago)

MUCM 181850Z 06013KT 9000 BKN025TCU 31/23 Q1011

Closest aviation forecast (TAF) to Vertientes Airport

Closest forecast is Ignacio Agramonte International Airport, 18.5 nm (34.3 km) NE.

2024/06/18 18:06 (retrieved 1 hour ago)

TAF MUCM 181700Z 1818/1918 06009KT 9000 SCT020 TEMPO 1818/1823 VRB12KT 5000 SHRA RA FEW018CB BKN020 BECMG 1901/1903 VRB04KT BECMG 1912/1914 07009KT